Time;durP1;ratioP1;P1;durP2;ratioP2;P2;SDS_P1;SDS_P2;PMS_P1;PMS_P2;Temp;Humidity;BMP_temperature;BMP_pressure;BME280_temperature;BME280_humidity;BME280_pressure;Samples;Min_cycle;Max_cycle;Signal;HPM_P1;HPM_P2
2021/04/18 00:00:26;;;;;;;18.60;15.77;;;7.00;1.00;;;;;;4969115;28;20240;-85
2021/04/18 00:05:37;;;;;;;19.00;15.52;;;7.00;1.00;;;;;;4837795;26;20273;-86
2021/04/18 00:08:16;;;;;;;21.02;14.93;;;6.90;1.00;;;;;;5001216;28;21012;-85
2021/04/18 00:10:48;;;;;;;18.10;16.27;;;6.90;1.00;;;;;;5006713;28;20237;-86
2021/04/18 00:13:21;;;;;;;22.48;15.23;;;6.90;1.00;;;;;;5007725;28;20218;-87
2021/04/18 00:15:49;;;;;;;21.08;15.13;;;6.90;1.00;;;;;;5011269;28;20230;-88
2021/04/18 00:18:23;;;;;;;23.08;15.25;;;6.80;1.00;;;;;;4997627;28;20227;-86
2021/04/18 00:20:56;;;;;;;17.60;15.05;;;6.80;1.00;;;;;;4996695;28;20229;-87
2021/04/18 00:23:30;;;;;;;22.02;15.82;;;6.70;1.00;;;;;;5004195;28;20226;-87
2021/04/18 00:26:00;;;;;;;22.38;16.60;;;6.70;1.00;;;;;;5022609;28;20262;-85
2021/04/18 00:28:31;;;;;;;17.90;15.65;;;6.60;1.00;;;;;;5018905;28;20234;-86
2021/04/18 00:30:59;;;;;;;25.88;15.90;;;6.60;1.00;;;;;;5011035;28;20235;-87
2021/04/18 00:33:27;;;;;;;18.27;15.70;;;6.60;1.00;;;;;;5000640;28;20262;-85
2021/04/18 00:35:54;;;;;;;20.52;16.30;;;6.60;1.00;;;;;;5019013;28;20695;-88
2021/04/18 00:38:21;;;;;;;21.20;16.63;;;6.60;1.00;;;;;;5028028;28;20226;-86
2021/04/18 00:40:49;;;;;;;20.85;15.50;;;6.50;1.00;;;;;;5026600;28;20238;-87
2021/04/18 00:43:20;;;;;;;18.80;15.98;;;6.60;1.00;;;;;;5031943;28;20215;-86
2021/04/18 00:45:50;;;;;;;18.80;15.77;;;6.70;1.00;;;;;;5039874;22;20367;-85
2021/04/18 00:48:18;;;;;;;18.17;16.13;;;6.70;1.00;;;;;;5019003;28;20226;-87
2021/04/18 00:50:47;;;;;;;24.55;16.13;;;6.70;1.00;;;;;;5002172;28;20253;-87
2021/04/18 00:53:20;;;;;;;23.73;16.40;;;6.70;1.00;;;;;;5037260;28;21310;-87
2021/04/18 00:55:50;;;;;;;25.67;17.45;;;6.80;1.00;;;;;;5038367;28;20252;-87
2021/04/18 00:58:19;;;;;;;19.38;16.25;;;6.80;1.00;;;;;;5016390;28;20234;-86
2021/04/18 01:01:26;;;;;;;22.85;16.85;;;6.80;1.00;;;;;;5039838;28;20230;-87
2021/04/18 01:04:01;;;;;;;19.80;16.27;;;6.80;1.00;;;;;;5020128;28;20293;-86
2021/04/18 01:06:31;;;;;;;19.70;16.58;;;6.80;1.00;;;;;;5042029;28;20226;-87
2021/04/18 01:09:03;;;;;;;23.70;16.40;;;6.90;1.00;;;;;;5020084;28;20226;-86
2021/04/18 01:11:40;;;;;;;23.52;16.75;;;6.90;1.00;;;;;;5024258;28;20218;-85
2021/04/18 01:14:14;;;;;;;21.63;15.77;;;6.90;1.00;;;;;;5033911;28;20226;-86
2021/04/18 01:16:52;;;;;;;21.38;16.73;;;6.90;1.00;;;;;;5023039;28;20230;-86
2021/04/18 01:22:41;;;;;;;20.48;16.38;;;6.90;1.00;;;;;;5016116;28;20277;-85
2021/04/18 01:31:43;;;;;;;18.10;15.80;;;7.00;1.00;;;;;;5037954;28;20258;-85
2021/04/18 01:34:15;;;;;;;18.33;16.35;;;7.00;1.00;;;;;;5037390;28;20225;-87
2021/04/18 01:36:45;;;;;;;22.70;16.63;;;7.10;1.00;;;;;;5020182;28;20300;-86
2021/04/18 01:42:01;;;;;;;21.42;16.27;;;7.20;1.00;;;;;;5005283;28;20267;-86
2021/04/18 01:44:30;;;;;;;19.65;16.30;;;7.20;1.00;;;;;;5002097;28;20238;-85
2021/04/18 01:46:57;;;;;;;20.13;15.45;;;7.30;1.00;;;;;;5018898;28;20228;-87
2021/04/18 01:49:25;;;;;;;18.88;16.88;;;7.30;1.00;;;;;;4998007;28;20223;-87
2021/04/18 01:51:54;;;;;;;20.58;18.05;;;7.30;1.00;;;;;;4999710;28;20729;-85
2021/04/18 01:54:23;;;;;;;22.33;18.20;;;7.40;1.00;;;;;;5002543;28;20263;-85
2021/04/18 01:56:53;;;;;;;20.45;16.70;;;7.40;1.00;;;;;;5004646;28;20236;-87
2021/04/18 01:59:21;;;;;;;20.73;15.73;;;7.30;1.00;;;;;;5011760;28;20294;-84
2021/04/18 02:01:48;;;;;;;21.90;16.63;;;7.30;1.00;;;;;;5011444;28;20211;-85
2021/04/18 02:04:20;;;;;;;19.50;17.50;;;7.40;1.00;;;;;;5002462;28;20242;-85
2021/04/18 02:06:50;;;;;;;22.48;16.35;;;7.30;1.00;;;;;;5007293;28;21053;-86
2021/04/18 02:09:18;;;;;;;22.88;19.77;;;7.30;1.00;;;;;;5006252;28;20642;-86
2021/04/18 02:11:45;;;;;;;20.75;18.52;;;7.20;1.00;;;;;;5010831;28;20290;-85
2021/04/18 02:14:16;;;;;;;21.25;17.05;;;7.20;1.00;;;;;;4994117;28;20231;-85
2021/04/18 02:16:48;;;;;;;22.20;17.50;;;7.30;1.00;;;;;;4999232;28;20227;-85
2021/04/18 02:19:18;;;;;;;23.17;17.70;;;7.30;1.00;;;;;;5004468;28;20307;-85
2021/04/18 02:21:48;;;;;;;17.95;15.98;;;7.30;1.00;;;;;;5015894;28;20224;-85
2021/04/18 02:24:17;;;;;;;26.35;17.10;;;7.30;1.00;;;;;;5004147;28;20235;-86
2021/04/18 02:26:49;;;;;;;20.85;16.90;;;7.30;1.00;;;;;;5004966;28;20238;-86
2021/04/18 02:29:21;;;;;;;18.95;16.90;;;7.20;1.00;;;;;;5008927;28;20235;-86
2021/04/18 02:31:51;;;;;;;20.15;16.15;;;7.30;1.00;;;;;;4996851;28;20226;-85
2021/04/18 02:34:21;;;;;;;20.90;16.60;;;7.30;1.00;;;;;;4992356;28;20231;-85
2021/04/18 02:36:54;;;;;;;23.23;16.58;;;7.30;1.00;;;;;;4996100;28;20287;-86
2021/04/18 02:39:24;;;;;;;18.00;16.20;;;7.30;1.00;;;;;;4988177;28;20247;-85
2021/04/18 02:41:51;;;;;;;22.27;17.80;;;7.40;1.00;;;;;;4989700;28;20231;-86
2021/04/18 02:44:19;;;;;;;24.55;19.45;;;7.40;1.00;;;;;;4991446;28;20743;-86
2021/04/18 02:46:49;;;;;;;21.35;16.83;;;7.40;1.00;;;;;;5007822;28;20319;-84
2021/04/18 02:49:22;;;;;;;19.92;16.73;;;7.40;1.00;;;;;;5009358;28;20703;-86
2021/04/18 02:51:53;;;;;;;21.85;17.10;;;7.50;1.00;;;;;;4989783;28;20227;-84
2021/04/18 02:54:23;;;;;;;20.13;17.52;;;7.50;1.00;;;;;;5001587;28;20224;-85
2021/04/18 02:56:59;;;;;;;24.63;18.40;;;7.50;1.00;;;;;;4987524;28;20244;-85
2021/04/18 02:59:38;;;;;;;22.70;17.23;;;7.50;1.00;;;;;;4986432;28;20231;-84
2021/04/18 03:02:11;;;;;;;28.88;17.27;;;7.50;1.00;;;;;;4987158;28;20806;-84
2021/04/18 03:05:00;;;;;;;25.63;18.80;;;7.50;1.00;;;;;;4982588;28;20250;-85
2021/04/18 03:07:39;;;;;;;28.38;18.95;;;7.50;1.00;;;;;;4996345;28;20224;-85
2021/04/18 03:10:20;;;;;;;24.67;19.70;;;7.50;1.00;;;;;;4998351;28;20211;-86
2021/04/18 03:13:03;;;;;;;24.73;20.60;;;7.40;1.00;;;;;;5000835;28;20579;-85
2021/04/18 03:15:44;;;;;;;28.35;22.73;;;7.30;1.00;;;;;;4990996;28;20774;-85
2021/04/18 03:18:13;;;;;;;33.53;23.95;;;7.30;1.00;;;;;;4993113;28;20266;-84
2021/04/18 03:21:07;;;;;;;33.05;24.33;;;7.30;1.00;;;;;;4989109;28;20326;-84
2021/04/18 03:23:37;;;;;;;31.30;23.67;;;7.20;1.00;;;;;;4987942;28;20350;-84
2021/04/18 03:26:07;;;;;;;35.25;24.98;;;7.20;1.00;;;;;;4986233;28;20224;-86
2021/04/18 03:28:38;;;;;;;37.42;27.88;;;7.10;1.00;;;;;;4988722;28;20228;-85
2021/04/18 03:31:15;;;;;;;34.33;24.55;;;7.10;1.00;;;;;;5007386;28;20231;-85
2021/04/18 03:33:42;;;;;;;34.20;25.15;;;7.10;1.00;;;;;;4990892;28;20233;-86
2021/04/18 03:39:17;;;;;;;35.05;24.55;;;7.00;1.00;;;;;;4994773;28;20226;-85
2021/04/18 03:41:44;;;;;;;33.17;25.15;;;7.00;1.00;;;;;;4988832;28;20772;-85
2021/04/18 03:44:12;;;;;;;40.88;26.45;;;6.90;1.00;;;;;;4989880;28;20227;-86
2021/04/18 03:46:42;;;;;;;33.22;25.88;;;6.90;1.00;;;;;;4984735;28;20227;-85
2021/04/18 03:49:10;;;;;;;30.90;25.95;;;7.00;1.00;;;;;;4987192;28;21147;-85
2021/04/18 03:51:38;;;;;;;36.28;25.40;;;7.00;1.00;;;;;;4988306;28;20223;-84
2021/04/18 03:54:07;;;;;;;36.55;26.63;;;6.90;1.00;;;;;;4987891;28;20231;-84
2021/04/18 03:56:35;;;;;;;40.47;28.05;;;7.00;1.00;;;;;;4988811;28;20231;-86
2021/04/18 03:59:10;;;;;;;36.80;27.20;;;7.00;1.00;;;;;;4989686;28;20236;-83
2021/04/18 04:01:37;;;;;;;39.42;27.25;;;7.00;1.00;;;;;;4990219;28;21130;-84
2021/04/18 04:04:05;;;;;;;34.60;26.20;;;7.00;1.00;;;;;;4988789;28;20306;-85
2021/04/18 04:06:38;;;;;;;37.58;27.80;;;7.00;1.00;;;;;;4988873;28;20223;-84
2021/04/18 04:09:15;;;;;;;38.13;28.98;;;7.00;1.00;;;;;;5003906;28;20299;-85
2021/04/18 04:11:46;;;;;;;39.50;28.95;;;7.00;1.00;;;;;;4997926;28;20715;-86
2021/04/18 04:14:19;;;;;;;41.53;29.85;;;7.00;1.00;;;;;;5006000;28;20259;-86
2021/04/18 04:16:47;;;;;;;40.78;29.08;;;7.00;1.00;;;;;;4998722;28;20234;-86
2021/04/18 04:19:17;;;;;;;40.33;28.25;;;6.90;1.00;;;;;;4987472;28;20243;-86
2021/04/18 04:21:45;;;;;;;45.78;31.10;;;6.90;1.00;;;;;;4987811;28;20238;-86
2021/04/18 04:24:13;;;;;;;41.03;28.95;;;6.90;1.00;;;;;;4987475;28;20259;-84
2021/04/18 04:26:45;;;;;;;44.50;29.73;;;7.00;1.00;;;;;;4991178;28;20497;-84
2021/04/18 04:29:29;;;;;;;44.28;30.35;;;7.00;1.00;;;;;;4993760;28;20227;-85
2021/04/18 04:31:58;;;;;;;43.85;30.77;;;7.00;1.00;;;;;;5016792;28;20207;-85
2021/04/18 04:34:27;;;;;;;43.08;30.50;;;7.00;1.00;;;;;;5011763;28;20230;-85
2021/04/18 04:36:56;;;;;;;41.17;29.25;;;7.00;1.00;;;;;;4992013;28;20227;-86
2021/04/18 04:39:26;;;;;;;40.53;29.38;;;7.00;1.00;;;;;;4993093;28;20236;-87
2021/04/18 04:41:53;;;;;;;38.45;28.65;;;7.00;1.00;;;;;;4986372;28;20564;-86
2021/04/18 04:44:22;;;;;;;38.28;28.15;;;7.00;1.00;;;;;;4989090;28;20248;-88
2021/04/18 04:46:55;;;;;;;44.35;29.20;;;7.00;1.00;;;;;;4989686;28;20227;-85
2021/04/18 04:49:22;;;;;;;43.28;29.08;;;7.00;1.00;;;;;;5010463;28;20321;-86
2021/04/18 04:51:49;;;;;;;45.03;29.65;;;7.00;1.00;;;;;;4996500;28;20347;-87
2021/04/18 04:54:18;;;;;;;45.85;29.70;;;7.00;1.00;;;;;;4994374;28;20240;-85
2021/04/18 04:56:45;;;;;;;42.33;30.10;;;7.00;1.00;;;;;;4999548;28;20219;-86
2021/04/18 04:59:12;;;;;;;45.65;30.65;;;7.00;1.00;;;;;;5006894;28;20251;-86
2021/04/18 05:01:40;;;;;;;42.15;29.33;;;7.10;1.00;;;;;;5008522;28;20212;-86
2021/04/18 05:04:10;;;;;;;47.17;32.22;;;7.10;1.00;;;;;;5005810;28;20231;-86
2021/04/18 05:06:37;;;;;;;49.67;32.85;;;7.20;1.00;;;;;;5002332;28;20228;-85
2021/04/18 05:09:07;;;;;;;50.88;33.90;;;7.20;1.00;;;;;;4994964;28;20260;-85
2021/04/18 05:11:35;;;;;;;50.90;35.53;;;7.20;1.00;;;;;;4994405;28;20287;-87
2021/04/18 05:14:06;;;;;;;51.30;35.58;;;7.30;1.00;;;;;;4987224;28;20231;-85
2021/04/18 05:16:33;;;;;;;43.40;30.92;;;7.30;1.00;;;;;;4988921;28;20227;-86
2021/04/18 05:19:00;;;;;;;51.00;31.15;;;7.20;1.00;;;;;;4988914;28;20292;-86
2021/04/18 05:21:28;;;;;;;47.15;31.50;;;7.20;1.00;;;;;;4987087;28;20250;-86
2021/04/18 05:23:55;;;;;;;50.78;35.03;;;7.30;1.00;;;;;;4990475;28;20259;-87
2021/04/18 05:26:23;;;;;;;50.28;32.92;;;7.30;1.00;;;;;;4991206;28;20229;-86
2021/04/18 05:28:55;;;;;;;50.95;33.58;;;7.30;1.00;;;;;;4996435;28;20223;-86
2021/04/18 05:31:28;;;;;;;49.67;33.78;;;7.20;1.00;;;;;;5016303;28;20219;-86
2021/04/18 05:33:55;;;;;;;50.05;34.28;;;7.20;1.00;;;;;;4988543;28;20327;-87
2021/04/18 05:36:25;;;;;;;45.13;32.13;;;7.20;1.00;;;;;;4981649;28;20302;-85
2021/04/18 05:38:52;;;;;;;46.22;34.67;;;7.30;1.00;;;;;;4986796;28;20240;-86
2021/04/18 05:41:20;;;;;;;51.67;32.15;;;7.30;1.00;;;;;;4984846;28;20290;-86
2021/04/18 05:43:48;;;;;;;52.38;33.67;;;7.20;1.00;;;;;;4985024;28;20247;-86
2021/04/18 05:46:17;;;;;;;50.35;35.10;;;7.20;1.00;;;;;;4986111;28;20236;-86
2021/04/18 05:48:49;;;;;;;53.33;34.53;;;7.30;1.00;;;;;;4990068;28;20222;-86
2021/04/18 05:51:16;;;;;;;45.78;34.10;;;7.30;1.00;;;;;;4984159;28;20239;-88
2021/04/18 05:53:43;;;;;;;55.20;35.03;;;7.40;1.00;;;;;;4993104;28;20278;-87
2021/04/18 05:56:13;;;;;;;50.47;33.45;;;7.40;1.00;;;;;;4990580;28;20238;-87
2021/04/18 05:58:40;;;;;;;49.88;32.08;;;7.40;1.00;;;;;;4986520;28;20235;-87
2021/04/18 06:01:07;;;;;;;47.65;32.13;;;7.40;1.00;;;;;;4989080;28;20589;-87
2021/04/18 06:03:36;;;;;;;49.03;32.00;;;7.50;1.00;;;;;;4989183;28;20848;-88
2021/04/18 06:06:04;;;;;;;53.72;34.35;;;7.50;1.00;;;;;;4990254;28;20236;-84
2021/04/18 06:08:33;;;;;;;49.97;33.03;;;7.50;1.00;;;;;;4992424;28;20231;-87
2021/04/18 06:11:01;;;;;;;50.20;31.55;;;7.50;1.00;;;;;;4990284;28;20287;-88
2021/04/18 06:13:28;;;;;;;53.85;34.33;;;7.50;1.00;;;;;;4992133;28;20235;-88
2021/04/18 06:15:55;;;;;;;54.33;32.70;;;7.50;1.00;;;;;;4990794;28;20619;-86
2021/04/18 06:18:22;;;;;;;56.85;33.42;;;7.50;1.00;;;;;;4989326;28;20224;-85
2021/04/18 06:20:50;;;;;;;54.17;33.97;;;7.50;1.00;;;;;;4992481;28;20263;-86
2021/04/18 06:23:17;;;;;;;51.78;31.98;;;7.50;1.00;;;;;;4989628;28;20232;-87
2021/04/18 06:25:47;;;;;;;51.72;35.50;;;7.50;1.00;;;;;;4993941;28;20247;-86
2021/04/18 06:28:14;;;;;;;61.00;34.75;;;7.50;1.00;;;;;;5003483;28;20318;-85
2021/04/18 06:30:43;;;;;;;51.88;32.92;;;7.40;1.00;;;;;;5004079;28;20243;-86
2021/04/18 06:33:10;;;;;;;52.90;32.95;;;7.50;1.00;;;;;;4986541;28;20228;-86
2021/04/18 06:35:40;;;;;;;54.72;34.13;;;7.40;1.00;;;;;;5003933;28;20224;-85
2021/04/18 06:38:08;;;;;;;54.95;33.55;;;7.50;1.00;;;;;;4988628;28;20232;-87
2021/04/18 06:40:36;;;;;;;57.70;34.80;;;7.50;1.00;;;;;;4988286;28;20242;-86
2021/04/18 06:43:07;;;;;;;56.33;35.95;;;7.50;1.00;;;;;;4988685;28;20212;-85
2021/04/18 06:45:34;;;;;;;60.97;36.92;;;7.60;1.00;;;;;;4986946;28;20235;-87
2021/04/18 06:48:02;;;;;;;60.70;35.20;;;7.60;1.00;;;;;;4990329;28;20234;-86
2021/04/18 06:50:32;;;;;;;57.15;35.85;;;7.60;1.00;;;;;;4988291;28;21042;-86
2021/04/18 06:52:59;;;;;;;63.22;36.90;;;7.60;1.00;;;;;;4990739;28;20223;-86
2021/04/18 06:55:29;;;;;;;52.35;34.75;;;7.70;1.00;;;;;;4994003;28;20220;-87
2021/04/18 06:57:56;;;;;;;56.80;34.85;;;7.70;1.00;;;;;;4997396;28;20296;-87
2021/04/18 07:00:25;;;;;;;55.65;32.08;;;7.70;1.00;;;;;;5005886;28;20231;-87
2021/04/18 07:03:08;;;;;;;54.30;34.53;;;7.60;1.00;;;;;;5008298;28;20786;-85
2021/04/18 07:05:42;;;;;;;62.28;35.55;;;7.70;1.00;;;;;;4998094;28;20232;-86
2021/04/18 07:08:19;;;;;;;55.08;34.08;;;7.60;1.00;;;;;;4990937;28;21224;-86
2021/04/18 07:10:48;;;;;;;51.13;32.75;;;7.50;1.00;;;;;;4990002;28;20250;-88
2021/04/18 07:13:18;;;;;;;57.47;33.15;;;7.50;1.00;;;;;;4992577;28;20227;-87
2021/04/18 07:15:46;;;;;;;50.00;32.55;;;7.40;1.00;;;;;;4990107;28;20258;-87
2021/04/18 07:18:34;;;;;;;52.47;32.05;;;7.40;1.00;;;;;;4988249;28;20227;-87
2021/04/18 07:21:01;;;;;;;48.45;30.20;;;7.40;1.00;;;;;;4988769;28;20243;-87
2021/04/18 07:23:30;;;;;;;57.60;32.85;;;7.40;1.00;;;;;;4995692;28;20299;-85
2021/04/18 07:26:00;;;;;;;50.88;33.03;;;7.40;1.00;;;;;;4995809;28;20231;-85
2021/04/18 07:28:28;;;;;;;52.03;31.85;;;7.40;1.00;;;;;;4992966;28;20255;-85
2021/04/18 07:30:55;;;;;;;40.58;30.92;;;7.40;1.00;;;;;;4999486;28;20233;-85
2021/04/18 07:33:22;;;;;;;44.08;30.67;;;7.40;1.00;;;;;;4990202;28;20271;-82
2021/04/18 07:35:49;;;;;;;48.13;30.67;;;7.40;1.00;;;;;;4991215;28;20231;-81
2021/04/18 07:38:18;;;;;;;44.25;27.55;;;7.40;1.00;;;;;;5004880;28;20255;-82
2021/04/18 07:40:45;;;;;;;41.55;27.52;;;7.40;1.00;;;;;;5009580;28;20239;-83
2021/04/18 07:43:14;;;;;;;38.45;25.70;;;7.40;1.00;;;;;;4996818;28;20921;-83
2021/04/18 07:45:42;;;;;;;34.97;25.35;;;7.40;1.00;;;;;;5013714;28;20230;-84
2021/04/18 07:48:11;;;;;;;43.13;28.60;;;7.40;1.00;;;;;;5004377;28;20242;-85
2021/04/18 07:50:39;;;;;;;42.13;27.17;;;7.40;1.00;;;;;;5016190;28;20204;-84
2021/04/18 07:53:06;;;;;;;42.65;29.23;;;7.30;1.00;;;;;;5012415;28;20816;-86
2021/04/18 07:55:34;;;;;;;39.30;24.83;;;7.30;1.00;;;;;;5003007;28;20220;-85
2021/04/18 07:58:01;;;;;;;37.35;28.33;;;7.30;1.00;;;;;;4991307;28;20758;-84
2021/04/18 08:00:29;;;;;;;37.70;27.25;;;7.30;1.00;;;;;;4992638;28;20266;-85
2021/04/18 08:02:59;;;;;;;40.63;28.30;;;7.40;1.00;;;;;;4998376;28;20242;-84
2021/04/18 08:05:32;;;;;;;34.25;25.23;;;7.40;1.00;;;;;;4991417;28;20229;-83
2021/04/18 08:08:13;;;;;;;36.25;25.13;;;7.40;1.00;;;;;;4994362;28;20231;-85
2021/04/18 08:10:41;;;;;;;37.63;23.67;;;7.40;1.00;;;;;;4990956;28;20718;-84
2021/04/18 08:13:11;;;;;;;32.88;24.75;;;7.40;1.00;;;;;;4991802;28;20737;-77
2021/04/18 08:15:41;;;;;;;35.88;26.58;;;7.40;1.00;;;;;;4990674;28;20267;-77
2021/04/18 08:18:10;;;;;;;34.55;24.88;;;7.40;1.00;;;;;;5011083;28;20232;-78
2021/04/18 08:20:39;;;;;;;35.10;24.95;;;7.40;1.00;;;;;;4996584;28;20270;-77
2021/04/18 08:23:09;;;;;;;31.83;24.65;;;7.50;1.00;;;;;;5001236;28;20275;-77
2021/04/18 08:25:38;;;;;;;34.53;23.80;;;7.50;1.00;;;;;;5005254;28;20283;-77
2021/04/18 08:28:12;;;;;;;29.10;23.70;;;7.60;1.00;;;;;;4990686;28;20223;-77
2021/04/18 08:31:02;;;;;;;32.60;24.92;;;7.60;1.00;;;;;;4996392;28;20269;-76
2021/04/18 08:33:46;;;;;;;30.00;23.35;;;7.80;1.00;;;;;;4992106;28;20232;-77
2021/04/18 08:36:15;;;;;;;32.05;23.38;;;7.80;1.00;;;;;;4983809;28;20224;-76
2021/04/18 08:38:42;;;;;;;26.70;21.45;;;8.00;1.00;;;;;;4979934;28;20777;-77
2021/04/18 08:41:12;;;;;;;22.67;18.83;;;8.10;1.00;;;;;;4979580;28;20231;-77
2021/04/18 08:43:38;;;;;;;24.05;18.98;;;8.20;1.00;;;;;;4980975;28;20223;-77
2021/04/18 08:46:05;;;;;;;23.90;19.17;;;8.30;1.00;;;;;;4982255;28;20486;-77
2021/04/18 08:48:32;;;;;;;26.63;20.23;;;8.30;1.00;;;;;;4981394;28;21052;-78
2021/04/18 08:51:00;;;;;;;19.70;17.15;;;8.30;1.00;;;;;;4995371;28;20306;-77
2021/04/18 08:53:27;;;;;;;19.90;17.23;;;8.30;1.00;;;;;;5005035;28;20223;-75
2021/04/18 08:55:56;;;;;;;20.77;17.73;;;8.40;1.00;;;;;;4999885;28;20403;-77
2021/04/18 08:58:33;;;;;;;22.45;17.65;;;8.30;1.00;;;;;;4977717;28;20243;-76
2021/04/18 09:01:09;;;;;;;20.15;16.08;;;8.30;1.00;;;;;;4967067;28;20231;-77
2021/04/18 09:03:37;;;;;;;21.63;17.33;;;8.30;1.00;;;;;;4965712;28;20223;-76
2021/04/18 09:06:09;;;;;;;20.02;17.52;;;8.30;1.00;;;;;;4967132;28;21059;-74
2021/04/18 09:08:48;;;;;;;24.35;18.60;;;8.30;1.00;;;;;;4965358;28;20231;-76
2021/04/18 09:11:15;;;;;;;20.73;17.25;;;8.10;1.00;;;;;;4971321;28;20798;-75
2021/04/18 09:13:55;;;;;;;20.35;18.10;;;8.10;1.00;;;;;;4965604;28;20299;-77
2021/04/18 09:16:24;;;;;;;20.00;18.00;;;8.10;1.00;;;;;;4967186;28;20362;-76
2021/04/18 09:18:50;;;;;;;22.42;18.45;;;8.20;1.00;;;;;;4968944;28;20323;-75
2021/04/18 09:21:17;;;;;;;23.58;18.90;;;8.20;1.00;;;;;;4969510;28;20227;-75
2021/04/18 09:23:58;;;;;;;23.75;19.75;;;8.30;1.00;;;;;;4967332;28;20226;-76
2021/04/18 09:26:25;;;;;;;23.60;19.85;;;8.30;1.00;;;;;;4965288;28;20232;-76
2021/04/18 09:29:12;;;;;;;21.92;17.80;;;8.50;1.00;;;;;;4971525;28;20268;-75
2021/04/18 09:31:55;;;;;;;21.02;17.50;;;8.50;1.00;;;;;;4971492;28;20235;-76
2021/04/18 09:34:21;;;;;;;19.60;16.83;;;8.60;1.00;;;;;;4990321;28;20226;-76
2021/04/18 09:36:50;;;;;;;20.45;17.27;;;8.70;1.00;;;;;;4972734;28;20227;-76
2021/04/18 09:39:17;;;;;;;19.40;17.30;;;8.80;1.00;;;;;;4969810;28;20291;-76
2021/04/18 09:41:43;;;;;;;19.20;17.20;;;9.20;1.00;;;;;;4966479;28;20345;-76
2021/04/18 09:44:26;;;;;;;19.05;17.05;;;9.50;1.00;;;;;;4970139;28;20337;-76
2021/04/18 09:46:53;;;;;;;16.00;14.40;;;9.80;1.00;;;;;;4971600;28;21036;-77
2021/04/18 09:49:20;;;;;;;17.83;16.02;;;9.90;1.00;;;;;;4971770;28;21062;-75
2021/04/18 09:51:58;;;;;;;21.27;18.92;;;10.10;1.00;;;;;;4973676;28;20795;-75
2021/04/18 09:54:33;;;;;;;16.17;14.57;;;10.40;1.00;;;;;;4975539;28;20317;-76
2021/04/18 09:57:20;;;;;;;14.43;12.93;;;10.70;1.00;;;;;;4975669;28;20245;-76
2021/04/18 10:00:01;;;;;;;16.27;14.73;;;11.10;1.00;;;;;;4984394;28;20339;-76
2021/04/18 10:02:28;;;;;;;14.13;12.73;;;11.60;1.00;;;;;;5000009;28;20285;-75
2021/04/18 10:05:09;;;;;;;13.80;12.37;;;12.10;1.00;;;;;;4996967;28;20510;-76
2021/04/18 10:07:36;;;;;;;12.87;11.67;;;12.60;1.00;;;;;;4998760;28;20451;-75
2021/04/18 10:10:03;;;;;;;11.80;10.70;;;13.30;1.00;;;;;;4996451;28;20530;-76
2021/04/18 10:12:29;;;;;;;11.97;10.87;;;14.30;1.00;;;;;;5002719;28;20483;-77
2021/04/18 10:15:04;;;;;;;11.63;10.57;;;15.10;1.00;;;;;;5010200;28;20412;-75
2021/04/18 10:17:34;;;;;;;10.43;9.53;;;15.90;1.00;;;;;;5002989;28;20441;-75
2021/04/18 10:20:00;;;;;;;11.60;10.60;;;16.50;1.00;;;;;;5007094;28;20430;-75
2021/04/18 10:22:28;;;;;;;11.77;10.67;;;17.10;1.00;;;;;;5004296;28;20398;-77
2021/04/18 10:24:56;;;;;;;11.17;10.07;;;17.60;1.00;;;;;;5007311;28;20477;-75
2021/04/18 10:27:25;;;;;;;11.27;10.37;;;17.70;1.00;;;;;;5001878;28;20415;-75
2021/04/18 10:29:52;;;;;;;11.57;10.67;;;17.40;1.00;;;;;;4991133;28;20617;-75
2021/04/18 10:32:20;;;;;;;13.27;12.07;;;16.90;1.00;;;;;;4995292;28;20412;-76
2021/04/18 10:34:47;;;;;;;11.73;10.63;;;16.90;1.00;;;;;;4992591;28;20438;-76
2021/04/18 10:37:13;;;;;;;11.13;10.03;;;17.40;1.00;;;;;;4991356;28;20872;-74
2021/04/18 10:39:41;;;;;;;10.73;9.83;;;17.30;1.00;;;;;;4997131;28;20815;-74
2021/04/18 10:42:08;;;;;;;11.93;10.93;;;17.60;1.00;;;;;;4993094;28;20448;-75
2021/04/18 10:44:34;;;;;;;10.27;9.37;;;18.90;1.00;;;;;;4987947;28;20463;-75
2021/04/18 10:47:02;;;;;;;10.33;9.50;;;20.10;1.00;;;;;;4986968;28;20440;-75
2021/04/18 10:49:29;;;;;;;10.90;10.00;;;20.30;1.00;;;;;;4985630;28;21335;-75
2021/04/18 10:51:56;;;;;;;10.23;9.33;;;20.80;1.00;;;;;;4983566;28;20465;-76
2021/04/18 10:54:24;;;;;;;10.60;9.70;;;21.20;1.00;;;;;;4980276;28;20457;-76
2021/04/18 10:56:52;;;;;;;10.97;10.07;;;21.00;1.00;;;;;;4973803;28;20455;-77
2021/04/18 10:59:20;;;;;;;12.27;11.17;;;19.70;1.00;;;;;;4969834;28;20459;-76
2021/04/18 11:01:46;;;;;;;11.03;10.13;;;19.00;1.00;;;;;;4975812;28;20599;-77
2021/04/18 11:04:12;;;;;;;11.50;10.60;;;18.10;1.00;;;;;;4973813;28;20434;-77
2021/04/18 11:06:39;;;;;;;21.83;19.87;;;17.40;1.00;;;;;;4973711;28;20493;-77
2021/04/18 11:09:06;;;;;;;11.93;10.93;;;16.90;1.00;;;;;;4980106;28;20540;-77
2021/04/18 11:11:33;;;;;;;12.23;11.20;;;16.40;1.00;;;;;;4993299;28;20461;-76
2021/04/18 11:14:00;;;;;;;11.80;10.80;;;16.20;1.00;;;;;;4999860;28;20536;-77
2021/04/18 11:16:27;;;;;;;12.80;11.60;;;15.80;1.00;;;;;;4967426;28;20550;-77
2021/04/18 11:18:53;;;;;;;15.53;14.20;;;15.70;1.00;;;;;;4968518;28;20503;-76
2021/04/18 11:21:20;;;;;;;13.90;12.70;;;15.50;1.00;;;;;;4970301;28;20452;-75
2021/04/18 11:23:46;;;;;;;13.70;12.50;;;15.50;1.00;;;;;;4970969;28;20610;-75
2021/04/18 11:26:13;;;;;;;13.00;11.87;;;15.40;1.00;;;;;;4971289;28;20498;-76
2021/04/18 11:28:39;;;;;;;12.97;11.70;;;15.40;1.00;;;;;;4970116;28;20471;-77
2021/04/18 11:31:06;;;;;;;14.07;12.67;;;15.40;1.00;;;;;;4973064;28;20459;-75
2021/04/18 11:33:32;;;;;;;13.43;12.30;;;15.40;1.00;;;;;;4973915;28;20469;-76
2021/04/18 11:35:59;;;;;;;13.57;12.20;;;15.30;1.00;;;;;;4972581;28;21704;-76
2021/04/18 11:38:25;;;;;;;14.83;13.47;;;15.20;1.00;;;;;;4969060;28;21097;-76
2021/04/18 11:40:53;;;;;;;13.40;12.20;;;15.30;1.00;;;;;;4971163;28;20698;-76
2021/04/18 11:43:20;;;;;;;14.27;13.07;;;15.60;1.00;;;;;;4974685;28;20496;-76
2021/04/18 11:45:46;;;;;;;12.80;11.50;;;15.60;1.00;;;;;;4976469;28;20446;-76
2021/04/18 11:48:13;;;;;;;14.70;13.00;;;15.50;1.00;;;;;;4974082;28;20534;-77
2021/04/18 11:50:40;;;;;;;13.80;12.60;;;15.40;1.00;;;;;;4972822;28;20491;-77
2021/04/18 11:53:06;;;;;;;14.17;12.77;;;15.40;1.00;;;;;;4999958;28;20443;-76
2021/04/18 11:55:34;;;;;;;14.77;13.37;;;15.50;1.00;;;;;;4979537;28;20436;-76
2021/04/18 11:58:00;;;;;;;13.73;12.47;;;15.70;1.00;;;;;;4968414;28;20499;-76
2021/04/18 12:00:27;;;;;;;12.97;11.83;;;16.00;1.00;;;;;;4999280;28;20493;-75
2021/04/18 12:02:53;;;;;;;15.53;13.53;;;16.70;1.00;;;;;;4997087;28;20458;-76
2021/04/18 12:05:20;;;;;;;13.63;11.97;;;17.80;1.00;;;;;;4972752;28;20474;-77
2021/04/18 12:07:46;;;;;;;14.17;12.97;;;18.80;1.00;;;;;;4969966;28;20425;-76
2021/04/18 12:10:14;;;;;;;13.97;12.57;;;19.40;1.00;;;;;;4975587;28;20645;-78
2021/04/18 12:12:50;;;;;;;13.43;12.40;;;19.40;1.00;;;;;;4972808;28;21647;-75
2021/04/18 12:15:17;;;;;;;14.40;13.20;;;19.00;1.00;;;;;;4982075;28;20455;-76
2021/04/18 12:17:44;;;;;;;13.77;12.57;;;18.60;1.00;;;;;;4969068;28;21716;-76
2021/04/18 12:20:12;;;;;;;16.00;14.60;;;18.30;1.00;;;;;;4971952;28;21486;-77
2021/04/18 12:22:40;;;;;;;15.07;13.77;;;18.20;1.00;;;;;;4973266;28;20431;-76
2021/04/18 12:25:09;;;;;;;16.40;14.80;;;18.20;1.00;;;;;;4987195;28;20456;-77
2021/04/18 12:27:36;;;;;;;17.27;15.67;;;18.20;1.00;;;;;;4978223;28;21029;-75
2021/04/18 12:30:03;;;;;;;14.77;13.47;;;17.80;1.00;;;;;;4980234;28;21166;-76
2021/04/18 12:32:29;;;;;;;18.20;14.47;;;17.60;1.00;;;;;;4976780;28;20434;-76
2021/04/18 12:34:55;;;;;;;23.60;14.37;;;17.20;1.00;;;;;;4994182;28;20620;-75
2021/04/18 12:37:21;;;;;;;18.07;16.40;;;16.90;1.00;;;;;;4986895;28;20528;-75
2021/04/18 12:39:48;;;;;;;16.40;14.80;;;16.50;1.00;;;;;;4988345;28;20476;-75
2021/04/18 12:42:15;;;;;;;16.27;14.73;;;16.40;1.00;;;;;;4994146;28;20446;-78
2021/04/18 12:44:41;;;;;;;15.03;13.13;;;16.40;1.00;;;;;;5011033;28;20443;-75
2021/04/18 12:47:12;;;;;;;15.37;13.77;;;16.70;1.00;;;;;;5005700;28;20434;-74
2021/04/18 12:49:39;;;;;;;15.40;13.80;;;17.10;1.00;;;;;;4986596;28;20450;-74
2021/04/18 12:52:06;;;;;;;16.30;14.90;;;17.30;1.00;;;;;;4976565;28;20433;-74
2021/04/18 12:54:32;;;;;;;16.13;14.73;;;17.20;1.00;;;;;;4978423;28;20423;-75
2021/04/18 12:56:59;;;;;;;15.40;14.00;;;17.10;1.00;;;;;;4976158;28;20450;-77
2021/04/18 12:59:26;;;;;;;15.77;14.37;;;17.00;1.00;;;;;;4981252;28;21377;-75
2021/04/18 13:01:52;;;;;;;15.60;14.23;;;17.70;1.00;;;;;;4988470;28;20482;-74
2021/04/18 13:04:18;;;;;;;15.07;13.60;;;18.60;1.00;;;;;;4979168;28;20568;-77
2021/04/18 13:06:45;;;;;;;15.63;14.33;;;18.70;1.00;;;;;;4976684;28;20537;-74
2021/04/18 13:09:11;;;;;;;15.47;14.10;;;18.10;1.00;;;;;;4970538;28;20489;-74
2021/04/18 13:11:38;;;;;;;20.03;18.17;;;17.80;1.00;;;;;;4968601;28;20497;-74
2021/04/18 13:14:05;;;;;;;17.43;15.80;;;17.10;1.00;;;;;;4970229;28;21285;-74
2021/04/18 13:16:31;;;;;;;16.47;14.87;;;16.40;1.00;;;;;;4969981;28;20559;-75